createdAt,value
2019-03-03T00:00:05.798Z,990.69
2019-03-03T00:01:05.790Z,990.69
2019-03-03T00:02:05.799Z,990.67
2019-03-03T00:03:05.764Z,990.64
2019-03-03T00:04:05.755Z,990.69
2019-03-03T00:05:05.748Z,990.71
2019-03-03T00:06:05.730Z,990.71
2019-03-03T00:07:05.724Z,990.69
2019-03-03T00:08:05.725Z,990.65
2019-03-03T00:09:05.699Z,990.65
2019-03-03T00:10:05.693Z,990.62
2019-03-03T00:11:05.681Z,990.65
2019-03-03T00:12:05.668Z,990.63
2019-03-03T00:13:05.659Z,990.60
2019-03-03T00:14:05.660Z,990.52
2019-03-03T00:15:05.671Z,990.61
2019-03-03T00:16:05.631Z,990.60
2019-03-03T00:17:05.622Z,990.57
2019-03-03T00:18:06.340Z,990.49
2019-03-03T00:19:05.593Z,990.55
2019-03-03T00:20:05.611Z,990.56
2019-03-03T00:21:05.567Z,990.50
2019-03-03T00:22:05.555Z,990.60
2019-03-03T00:23:05.561Z,990.54
2019-03-03T00:24:05.564Z,990.56
2019-03-03T00:25:05.525Z,990.56
2019-03-03T00:26:05.531Z,990.56
2019-03-03T00:27:05.524Z,990.59
2019-03-03T00:28:05.492Z,990.50
2019-03-03T00:29:05.484Z,990.54
2019-03-03T00:30:05.468Z,990.54
2019-03-03T00:31:05.459Z,990.64
2019-03-03T00:32:05.473Z,990.62
2019-03-03T00:33:05.435Z,990.62
2019-03-03T00:34:05.422Z,990.66
2019-03-03T00:35:05.439Z,990.62
2019-03-03T00:36:05.411Z,990.68
2019-03-03T00:37:05.419Z,990.66
2019-03-03T00:38:05.397Z,990.68
2019-03-03T00:39:05.367Z,990.73
2019-03-03T00:40:05.356Z,990.71
2019-03-03T00:41:05.342Z,990.71
2019-03-03T00:42:05.330Z,990.68
2019-03-03T00:43:05.321Z,990.66
2019-03-03T00:44:05.327Z,990.60
2019-03-03T00:45:05.320Z,990.60
2019-03-03T00:46:05.292Z,990.68
2019-03-03T00:47:05.273Z,990.72
2019-03-03T00:48:05.288Z,990.67
2019-03-03T00:49:05.269Z,990.64
2019-03-03T00:50:05.272Z,990.63
2019-03-03T00:51:05.231Z,990.64
2019-03-03T00:52:05.225Z,990.59
2019-03-03T00:53:05.214Z,990.63
2019-03-03T00:54:05.204Z,990.53
2019-03-03T00:55:05.188Z,990.54
2019-03-03T00:56:05.199Z,990.48
2019-03-03T00:57:05.171Z,990.50
2019-03-03T00:58:05.154Z,990.41
2019-03-03T00:59:05.150Z,990.44
2019-03-03T01:00:05.134Z,990.44
2019-03-03T01:01:05.140Z,990.47
2019-03-03T01:02:05.155Z,990.47
2019-03-03T01:03:05.109Z,990.44
2019-03-03T01:04:05.122Z,990.46
2019-03-03T01:05:05.092Z,990.47
2019-03-03T01:06:05.067Z,990.45
2019-03-03T01:07:05.063Z,990.50
2019-03-03T01:08:05.066Z,990.47
2019-03-03T01:09:05.043Z,990.53
2019-03-03T01:10:05.051Z,990.52
2019-03-03T01:11:05.030Z,990.45
2019-03-03T01:12:05.012Z,990.41
2019-03-03T01:13:05.004Z,990.44
2019-03-03T01:14:05.024Z,990.40
2019-03-03T01:15:04.974Z,990.37
2019-03-03T01:16:04.968Z,990.36
2019-03-03T01:17:04.962Z,990.36
2019-03-03T01:18:04.943Z,990.38
2019-03-03T01:19:04.951Z,990.38
2019-03-03T01:20:04.944Z,990.38
2019-03-03T01:21:04.923Z,990.40
2019-03-03T01:22:04.900Z,990.38
2019-03-03T01:23:04.892Z,990.40
2019-03-03T01:24:04.877Z,990.41
2019-03-03T01:25:04.868Z,990.45
2019-03-03T01:26:04.875Z,990.45
2019-03-03T01:27:04.850Z,990.45
2019-03-03T01:28:04.834Z,990.48
2019-03-03T01:29:06.334Z,990.46
2019-03-03T01:30:04.817Z,990.47
2019-03-03T01:31:04.805Z,990.44
2019-03-03T01:32:04.825Z,990.43
2019-03-03T01:33:04.782Z,990.34
2019-03-03T01:34:04.771Z,990.37
2019-03-03T01:35:04.758Z,990.36
2019-03-03T01:36:04.752Z,990.32
2019-03-03T01:37:04.740Z,990.35
2019-03-03T01:38:04.763Z,990.30
2019-03-03T01:39:04.717Z,990.29
2019-03-03T01:40:04.727Z,990.20
2019-03-03T01:41:06.301Z,990.24
2019-03-03T01:42:04.697Z,990.20
2019-03-03T01:43:04.683Z,990.18
2019-03-03T01:44:04.682Z,990.18
2019-03-03T01:45:04.656Z,990.26
2019-03-03T01:46:04.647Z,990.20
2019-03-03T01:47:04.631Z,990.25
2019-03-03T01:48:04.640Z,990.22
2019-03-03T01:49:04.621Z,990.23
2019-03-03T01:50:04.614Z,990.23
2019-03-03T01:51:04.589Z,990.20
2019-03-03T01:52:04.578Z,990.20
2019-03-03T01:53:04.569Z,990.17
2019-03-03T01:54:04.569Z,990.23
2019-03-03T01:55:04.570Z,990.25
2019-03-03T01:56:04.553Z,990.26
2019-03-03T01:57:04.547Z,990.22
2019-03-03T01:58:04.525Z,990.19
2019-03-03T01:59:04.506Z,990.17
2019-03-03T02:00:04.496Z,990.16
2019-03-03T02:01:04.479Z,990.11
2019-03-03T02:02:04.489Z,990.15
2019-03-03T02:03:04.463Z,990.16
2019-03-03T02:04:04.479Z,990.15
2019-03-03T02:05:04.442Z,990.14
2019-03-03T02:06:04.428Z,990.10
2019-03-03T02:07:04.416Z,990.06
2019-03-03T02:08:04.425Z,989.97
2019-03-03T02:09:04.410Z,990.07
2019-03-03T02:10:04.391Z,990.02
2019-03-03T02:11:04.392Z,990.02
2019-03-03T02:12:04.367Z,990.06
2019-03-03T02:13:04.357Z,989.98
2019-03-03T02:14:04.364Z,989.99
2019-03-03T02:15:04.345Z,989.95
2019-03-03T02:16:04.323Z,990.01
2019-03-03T02:17:04.328Z,989.94
2019-03-03T02:18:04.299Z,989.98
2019-03-03T02:19:04.291Z,989.96
2019-03-03T02:20:04.304Z,989.96
2019-03-03T02:21:04.266Z,989.97
2019-03-03T02:22:04.255Z,989.94
2019-03-03T02:23:04.243Z,989.97
2019-03-03T02:24:04.249Z,990.01
2019-03-03T02:25:04.218Z,989.98
2019-03-03T02:26:04.229Z,989.92
2019-03-03T02:27:04.202Z,989.89
2019-03-03T02:28:04.204Z,989.91
2019-03-03T02:29:04.187Z,989.90
2019-03-03T02:30:04.167Z,989.82
2019-03-03T02:31:04.156Z,989.85
2019-03-03T02:32:04.171Z,989.81
2019-03-03T02:33:04.146Z,989.81
2019-03-03T02:34:04.145Z,989.81
2019-03-03T02:35:04.109Z,989.81
2019-03-03T02:36:04.101Z,989.77
2019-03-03T02:37:04.096Z,989.73
2019-03-03T02:38:04.102Z,989.79
2019-03-03T02:39:04.076Z,989.75
2019-03-03T02:40:04.057Z,989.68
2019-03-03T02:41:04.041Z,989.63
2019-03-03T02:42:04.031Z,989.63
2019-03-03T02:43:04.021Z,989.55
2019-03-03T02:44:04.026Z,989.56
2019-03-03T02:45:03.997Z,989.49
2019-03-03T02:46:03.991Z,989.52
2019-03-03T02:47:03.990Z,989.47
2019-03-03T02:48:03.970Z,989.47
2019-03-03T02:49:03.956Z,989.42
2019-03-03T02:50:03.964Z,989.44
2019-03-03T02:51:03.951Z,989.40
2019-03-03T02:52:03.930Z,989.42
2019-03-03T02:53:03.952Z,989.33
2019-03-03T02:54:03.900Z,989.29
2019-03-03T02:55:03.903Z,989.26
2019-03-03T02:56:03.896Z,989.28
2019-03-03T02:57:03.878Z,989.26
2019-03-03T02:58:03.860Z,989.19
2019-03-03T02:59:03.878Z,989.16
2019-03-03T03:00:03.837Z,989.14
2019-03-03T03:01:03.828Z,989.10
2019-03-03T03:02:03.838Z,989.09
2019-03-03T03:03:03.807Z,989.04
2019-03-03T03:04:03.795Z,989.11
2019-03-03T03:05:03.784Z,989.10
2019-03-03T03:06:03.777Z,989.05
2019-03-03T03:07:03.763Z,989.09
2019-03-03T03:08:03.770Z,989.09
2019-03-03T03:09:03.755Z,989.05
2019-03-03T03:10:03.731Z,989.09
2019-03-03T03:11:03.735Z,989.06
2019-03-03T03:12:03.719Z,989.08
2019-03-03T03:13:03.703Z,989.10
2019-03-03T03:14:03.708Z,989.04
2019-03-03T03:15:03.681Z,989.02
2019-03-03T03:16:03.672Z,989.03
2019-03-03T03:17:03.663Z,989.05
2019-03-03T03:18:03.645Z,989.05
2019-03-03T03:19:03.731Z,989.07
2019-03-03T03:20:03.645Z,989.06
2019-03-03T03:21:03.636Z,989.08
2019-03-03T03:22:03.608Z,989.07
2019-03-03T03:23:03.609Z,989.09
2019-03-03T03:24:03.578Z,989.09
2019-03-03T03:25:03.623Z,989.06
2019-03-03T03:26:03.576Z,989.08
2019-03-03T03:27:03.550Z,989.02
2019-03-03T03:28:03.538Z,989.03
2019-03-03T03:29:03.534Z,989.04
2019-03-03T03:30:03.523Z,988.99
2019-03-03T03:31:03.521Z,988.94
2019-03-03T03:32:03.517Z,988.96
2019-03-03T03:33:03.492Z,988.91
2019-03-03T03:34:03.491Z,988.89
2019-03-03T03:35:03.470Z,988.85
2019-03-03T03:36:03.462Z,988.81
2019-03-03T03:37:03.456Z,988.85
2019-03-03T03:38:03.476Z,988.78
2019-03-03T03:39:03.432Z,988.81
2019-03-03T03:40:03.413Z,988.80
2019-03-03T03:41:03.402Z,988.76
2019-03-03T03:42:03.388Z,988.78
2019-03-03T03:43:03.380Z,988.73
2019-03-03T03:44:03.391Z,988.72
2019-03-03T03:45:03.356Z,988.68
2019-03-03T03:46:03.345Z,988.68
2019-03-03T03:47:03.333Z,988.65
2019-03-03T03:48:03.322Z,988.63
2019-03-03T03:49:03.317Z,988.67
2019-03-03T03:50:03.318Z,988.67
2019-03-03T03:51:03.291Z,988.64
2019-03-03T03:52:03.285Z,988.59
2019-03-03T03:53:03.277Z,988.57
2019-03-03T03:54:03.286Z,988.55
2019-03-03T03:55:03.251Z,988.55
2019-03-03T03:56:03.267Z,988.60
2019-03-03T03:57:03.244Z,988.50
2019-03-03T03:58:03.216Z,988.51
2019-03-03T03:59:03.209Z,988.51
2019-03-03T04:00:03.196Z,988.53
2019-03-03T04:01:03.194Z,988.54
2019-03-03T04:02:03.211Z,988.50
2019-03-03T04:03:03.168Z,988.47
2019-03-03T04:04:03.150Z,988.51
2019-03-03T04:05:03.136Z,988.47
2019-03-03T04:06:03.136Z,988.45
2019-03-03T04:07:03.118Z,988.46
2019-03-03T04:08:03.159Z,988.45
2019-03-03T04:09:03.090Z,988.39
2019-03-03T04:10:03.085Z,988.39
2019-03-03T04:11:03.070Z,988.40
2019-03-03T04:12:03.066Z,988.27
2019-03-03T04:13:03.066Z,988.31
2019-03-03T04:14:03.059Z,988.30
2019-03-03T04:15:03.032Z,988.28
2019-03-03T04:16:03.013Z,988.33
2019-03-03T04:17:03.003Z,988.34
2019-03-03T04:18:03.007Z,988.31
2019-03-03T04:19:02.980Z,988.29
2019-03-03T04:20:03.013Z,988.33
2019-03-03T04:21:02.960Z,988.36
2019-03-03T04:22:02.949Z,988.26
2019-03-03T04:23:02.943Z,988.28
2019-03-03T04:24:02.934Z,988.20
2019-03-03T04:25:02.915Z,988.22
2019-03-03T04:26:02.918Z,988.18
2019-03-03T04:27:02.909Z,988.16
2019-03-03T04:28:02.880Z,988.17
2019-03-03T04:29:02.869Z,988.12
2019-03-03T04:30:02.859Z,988.11
2019-03-03T04:31:02.861Z,988.19
2019-03-03T04:32:02.856Z,988.13
2019-03-03T04:33:02.827Z,988.14
2019-03-03T04:34:02.812Z,988.18
2019-03-03T04:35:02.817Z,988.21
2019-03-03T04:36:02.792Z,988.10
2019-03-03T04:37:02.782Z,988.09
2019-03-03T04:38:02.784Z,988.12
2019-03-03T04:39:02.757Z,988.13
2019-03-03T04:40:02.743Z,988.06
2019-03-03T04:41:02.747Z,988.02
2019-03-03T04:42:02.749Z,988.03
2019-03-03T04:43:02.719Z,988.11
2019-03-03T04:44:02.726Z,988.11
2019-03-03T04:45:02.689Z,988.11
2019-03-03T04:46:02.679Z,988.11
2019-03-03T04:47:02.666Z,988.04
2019-03-03T04:48:02.656Z,988.14
2019-03-03T04:49:02.645Z,988.08
2019-03-03T04:50:02.644Z,988.10
2019-03-03T04:51:02.621Z,988.11
2019-03-03T04:52:02.615Z,988.06
2019-03-03T04:53:02.598Z,988.09
2019-03-03T04:54:02.586Z,988.12
2019-03-03T04:55:02.595Z,988.08
2019-03-03T04:56:02.591Z,988.04
2019-03-03T04:57:02.556Z,988.04
2019-03-03T04:58:02.549Z,988.03
2019-03-03T04:59:02.541Z,988.04
2019-03-03T05:00:02.518Z,988.05
2019-03-03T05:01:02.507Z,988.03
2019-03-03T05:02:02.530Z,988.07
2019-03-03T05:03:02.484Z,988.04
2019-03-03T05:04:02.471Z,988.06
2019-03-03T05:05:02.460Z,988.07
2019-03-03T05:06:02.450Z,988.06
2019-03-03T05:07:02.441Z,988.11
2019-03-03T05:08:02.482Z,988.04
2019-03-03T05:09:02.416Z,988.07
2019-03-03T05:10:02.438Z,987.94
2019-03-03T05:11:02.391Z,987.92
2019-03-03T05:12:02.383Z,987.86
2019-03-03T05:13:02.370Z,987.85
2019-03-03T05:14:02.377Z,987.85
2019-03-03T05:15:02.344Z,987.86
2019-03-03T05:16:02.338Z,987.84
2019-03-03T05:17:02.323Z,987.81
2019-03-03T05:18:02.314Z,987.74
2019-03-03T05:19:02.303Z,987.81
2019-03-03T05:20:02.310Z,987.77
2019-03-03T05:21:02.284Z,987.77
2019-03-03T05:22:02.269Z,987.69
2019-03-03T05:23:02.257Z,987.71
2019-03-03T05:24:02.245Z,987.69
2019-03-03T05:25:02.242Z,987.67
2019-03-03T05:26:02.243Z,987.68
2019-03-03T05:27:02.238Z,987.64
2019-03-03T05:28:02.197Z,987.64
2019-03-03T05:29:02.187Z,987.71
2019-03-03T05:30:02.175Z,987.67
2019-03-03T05:31:02.169Z,987.67
2019-03-03T05:32:02.171Z,987.65
2019-03-03T05:33:02.143Z,987.66
2019-03-03T05:34:02.133Z,987.63
2019-03-03T05:35:02.144Z,987.66
2019-03-03T05:36:02.108Z,987.59
2019-03-03T05:37:02.104Z,987.58
2019-03-03T05:38:02.136Z,987.63
2019-03-03T05:39:02.074Z,987.58
2019-03-03T05:40:02.068Z,987.56
2019-03-03T05:41:02.048Z,987.58
2019-03-03T05:42:02.047Z,987.56
2019-03-03T05:43:02.032Z,987.56
2019-03-03T05:44:02.039Z,987.50
2019-03-03T05:45:02.010Z,987.47
2019-03-03T05:46:01.994Z,987.47
2019-03-03T05:47:01.983Z,987.42
2019-03-03T05:48:01.970Z,987.45
2019-03-03T05:49:01.965Z,987.43
2019-03-03T05:50:01.974Z,987.42
2019-03-03T05:51:01.943Z,987.41
2019-03-03T05:52:01.923Z,987.46
2019-03-03T05:53:01.912Z,987.46
2019-03-03T05:54:01.908Z,987.47
2019-03-03T05:55:01.895Z,987.44
2019-03-03T05:56:01.911Z,987.49
2019-03-03T05:57:01.868Z,987.44
2019-03-03T05:58:01.860Z,987.46
2019-03-03T05:59:01.858Z,987.46
2019-03-03T06:00:01.847Z,987.43
2019-03-03T06:01:01.827Z,987.40
2019-03-03T06:02:01.838Z,987.38
2019-03-03T06:03:01.810Z,987.40
2019-03-03T06:04:01.790Z,987.42
2019-03-03T06:05:01.784Z,987.41
2019-03-03T06:06:01.771Z,987.48
2019-03-03T06:07:01.757Z,987.41
2019-03-03T06:08:01.762Z,987.45
2019-03-03T06:09:01.740Z,987.45
2019-03-03T06:10:01.739Z,987.50
2019-03-03T06:11:01.721Z,987.44
2019-03-03T06:12:01.706Z,987.53
2019-03-03T06:13:01.688Z,987.45
2019-03-03T06:14:01.693Z,987.48
2019-03-03T06:15:01.674Z,987.50
2019-03-03T06:16:01.659Z,987.51
2019-03-03T06:17:01.657Z,987.50
2019-03-03T06:18:01.636Z,987.56
2019-03-03T06:19:01.633Z,987.52
2019-03-03T06:20:01.666Z,987.69
2019-03-03T06:21:01.600Z,987.59
2019-03-03T06:22:01.586Z,987.59
2019-03-03T06:23:01.584Z,987.60
2019-03-03T06:24:01.566Z,987.67
2019-03-03T06:25:01.553Z,987.59
2019-03-03T06:26:01.566Z,987.65
2019-03-03T06:27:01.535Z,987.61
2019-03-03T06:28:01.520Z,987.59
2019-03-03T06:29:01.515Z,987.59
2019-03-03T06:30:01.506Z,987.53
2019-03-03T06:31:01.483Z,987.55
2019-03-03T06:32:01.491Z,987.47
2019-03-03T06:33:01.459Z,987.49
2019-03-03T06:34:01.451Z,987.49
2019-03-03T06:35:01.445Z,987.46
2019-03-03T06:36:01.434Z,987.48
2019-03-03T06:37:01.414Z,987.48
2019-03-03T06:38:01.423Z,987.41
2019-03-03T06:39:01.405Z,987.47
2019-03-03T06:40:01.383Z,987.48
2019-03-03T06:41:01.374Z,987.53
2019-03-03T06:42:01.365Z,987.45
2019-03-03T06:43:01.349Z,987.53
2019-03-03T06:44:01.354Z,987.53
2019-03-03T06:45:01.329Z,987.50
2019-03-03T06:46:01.316Z,987.48
2019-03-03T06:47:01.309Z,987.44
2019-03-03T06:48:01.293Z,987.44
2019-03-03T06:49:01.282Z,987.43
2019-03-03T06:50:01.287Z,987.43
2019-03-03T06:51:01.265Z,987.45
2019-03-03T06:52:01.253Z,987.48
2019-03-03T06:53:01.238Z,987.49
2019-03-03T06:54:01.237Z,987.51
2019-03-03T06:55:01.861Z,987.44
2019-03-03T06:56:01.224Z,987.47
2019-03-03T06:57:01.191Z,987.46
2019-03-03T06:58:01.185Z,987.50
2019-03-03T06:59:01.179Z,987.38
2019-03-03T07:00:03.868Z,987.38
2019-03-03T07:01:02.877Z,987.43
2019-03-03T07:02:01.156Z,987.39
2019-03-03T07:03:01.128Z,987.38
2019-03-03T07:04:01.109Z,987.44
2019-03-03T07:05:01.101Z,987.35
2019-03-03T07:06:01.091Z,987.46
2019-03-03T07:07:01.079Z,987.44
2019-03-03T07:08:01.080Z,987.38
2019-03-03T07:09:01.086Z,987.47
2019-03-03T07:10:07.860Z,987.49
2019-03-03T07:11:01.034Z,987.45
2019-03-03T07:12:01.858Z,987.47
2019-03-03T07:13:01.011Z,987.51
2019-03-03T07:14:01.017Z,987.46
2019-03-03T07:15:00.987Z,987.44
2019-03-03T07:16:00.979Z,987.44
2019-03-03T07:17:01.875Z,987.40
2019-03-03T07:18:00.958Z,987.48
2019-03-03T07:19:00.946Z,987.49
2019-03-03T07:20:00.947Z,987.42
2019-03-03T07:21:00.920Z,987.45
2019-03-03T07:22:00.918Z,987.41
2019-03-03T07:23:00.895Z,987.38
2019-03-03T07:24:00.889Z,987.36
2019-03-03T07:25:00.874Z,987.36
2019-03-03T07:26:00.880Z,987.39
2019-03-03T07:27:01.368Z,987.42
2019-03-03T07:28:01.358Z,987.41
2019-03-03T07:29:00.831Z,987.48
2019-03-03T07:30:01.359Z,987.53
2019-03-03T07:31:03.365Z,987.52
2019-03-03T07:32:00.812Z,987.54
2019-03-03T07:33:00.783Z,987.57
2019-03-03T07:34:00.772Z,987.56
2019-03-03T07:35:01.363Z,987.59
2019-03-03T07:36:00.768Z,987.56
2019-03-03T07:37:00.738Z,987.56
2019-03-03T07:38:00.742Z,987.57
2019-03-03T07:39:00.716Z,987.57
2019-03-03T07:40:00.709Z,987.69
2019-03-03T07:41:01.361Z,987.53
2019-03-03T07:42:01.365Z,987.56
2019-03-03T07:43:00.684Z,987.55
2019-03-03T07:44:00.681Z,987.51
2019-03-03T07:45:00.668Z,987.52
2019-03-03T07:46:02.367Z,987.49
2019-03-03T07:47:00.627Z,987.52
2019-03-03T07:48:00.621Z,987.52
2019-03-03T07:49:00.624Z,987.55
2019-03-03T07:50:00.613Z,987.59
2019-03-03T07:51:00.581Z,987.55
2019-03-03T07:52:00.581Z,987.59
2019-03-03T07:53:02.369Z,987.55
2019-03-03T07:54:00.585Z,987.50
2019-03-03T07:55:00.536Z,987.52
2019-03-03T07:56:00.551Z,987.65
2019-03-03T07:57:01.365Z,987.63
2019-03-03T07:58:00.536Z,987.66
2019-03-03T07:59:00.493Z,987.59
2019-03-03T08:00:00.489Z,987.66
2019-03-03T08:01:00.470Z,987.67
2019-03-03T08:02:00.474Z,987.70
2019-03-03T08:03:00.451Z,987.67
2019-03-03T08:04:00.439Z,987.66
2019-03-03T08:05:00.430Z,987.70
2019-03-03T08:06:00.413Z,987.67
2019-03-03T08:07:00.422Z,987.64
2019-03-03T08:08:00.407Z,987.71
2019-03-03T08:09:00.383Z,987.63
2019-03-03T08:10:00.368Z,987.66
2019-03-03T08:11:00.358Z,987.67
2019-03-03T08:12:00.357Z,987.70
2019-03-03T08:13:08.972Z,987.64
2019-03-03T08:14:01.340Z,987.60
2019-03-03T08:15:00.329Z,987.65
2019-03-03T08:16:00.866Z,987.65
2019-03-03T08:17:00.292Z,987.73
2019-03-03T08:18:00.284Z,987.60
2019-03-03T08:19:00.270Z,987.67
2019-03-03T08:20:00.319Z,987.64
2019-03-03T08:21:00.246Z,987.62
2019-03-03T08:22:00.237Z,987.60
2019-03-03T08:23:00.227Z,987.63
2019-03-03T08:24:00.211Z,987.55
2019-03-03T08:25:00.342Z,987.53
2019-03-03T08:26:00.211Z,987.56
2019-03-03T08:27:00.177Z,987.56
2019-03-03T08:28:00.168Z,987.57
2019-03-03T08:29:00.157Z,987.58
2019-03-03T08:30:02.870Z,987.51
2019-03-03T08:31:00.133Z,987.56
2019-03-03T08:32:00.143Z,987.52
2019-03-03T08:33:00.110Z,987.50
2019-03-03T08:34:00.866Z,987.47
2019-03-03T08:35:00.126Z,987.48
2019-03-03T08:36:00.089Z,987.52
2019-03-03T08:37:00.326Z,987.44
2019-03-03T08:38:00.075Z,987.42
2019-03-03T08:39:00.044Z,987.50
2019-03-03T08:40:00.030Z,987.44
2019-03-03T08:41:00.036Z,987.45
2019-03-03T08:42:00.006Z,987.47
2019-03-03T08:42:59.999Z,987.40
2019-03-03T08:44:00.004Z,987.39
2019-03-03T08:44:59.997Z,987.46
2019-03-03T08:45:59.977Z,987.39
2019-03-03T08:46:59.958Z,987.43
2019-03-03T08:47:59.941Z,987.48
2019-03-03T08:48:59.932Z,987.50
2019-03-03T08:49:59.949Z,987.51
2019-03-03T08:51:00.868Z,987.53
2019-03-03T08:51:59.895Z,987.43
2019-03-03T08:52:59.881Z,987.46
2019-03-03T08:53:59.891Z,987.46
2019-03-03T08:55:00.182Z,987.45
2019-03-03T08:55:59.870Z,987.40
2019-03-03T08:56:59.860Z,987.40
2019-03-03T08:57:59.828Z,987.43
2019-03-03T08:58:59.814Z,987.39
2019-03-03T08:59:59.803Z,987.40
2019-03-03T09:01:00.366Z,987.39
2019-03-03T09:01:59.803Z,987.39
2019-03-03T09:02:59.772Z,987.45
2019-03-03T09:03:59.758Z,987.41
2019-03-03T09:04:59.749Z,987.42
2019-03-03T09:05:59.743Z,987.43
2019-03-03T09:06:59.731Z,987.43
2019-03-03T09:07:59.727Z,987.45
2019-03-03T09:08:59.727Z,987.46
2019-03-03T09:09:59.689Z,987.46
2019-03-03T09:10:59.678Z,987.42
2019-03-03T09:12:01.375Z,987.44
2019-03-03T09:12:59.682Z,987.46
2019-03-03T09:13:59.671Z,987.42
2019-03-03T09:14:59.643Z,987.46
2019-03-03T09:15:59.621Z,987.46
2019-03-03T09:16:59.631Z,987.46
2019-03-03T09:17:59.603Z,987.46
2019-03-03T09:18:59.603Z,987.43
2019-03-03T09:19:59.593Z,987.45
2019-03-03T09:20:59.580Z,987.43
2019-03-03T09:22:00.383Z,987.37
2019-03-03T09:23:02.373Z,987.36
2019-03-03T09:23:59.529Z,987.32
2019-03-03T09:25:02.392Z,987.36
2019-03-03T09:25:59.523Z,987.41
2019-03-03T09:26:59.494Z,987.37
2019-03-03T09:27:59.486Z,987.44
2019-03-03T09:29:02.368Z,987.38
2019-03-03T09:29:59.461Z,987.36
2019-03-03T09:31:00.375Z,987.42
2019-03-03T09:31:59.459Z,987.40
2019-03-03T09:33:00.368Z,987.36
2019-03-03T09:33:59.410Z,987.35
2019-03-03T09:34:59.414Z,987.41
2019-03-03T09:35:59.391Z,987.44
2019-03-03T09:36:59.375Z,987.47
2019-03-03T09:37:59.383Z,987.47
2019-03-03T09:38:59.351Z,987.40
2019-03-03T09:40:08.817Z,987.48
2019-03-03T09:41:00.327Z,987.41
2019-03-03T09:41:59.322Z,987.46
2019-03-03T09:42:59.304Z,987.51
2019-03-03T09:43:59.312Z,987.44
2019-03-03T09:44:59.286Z,987.45
2019-03-03T09:45:59.270Z,987.42
2019-03-03T09:46:59.260Z,987.38
2019-03-03T09:47:59.252Z,987.39
2019-03-03T09:48:59.265Z,987.38
2019-03-03T09:49:59.240Z,987.40
2019-03-03T09:50:59.216Z,987.39
2019-03-03T09:51:59.205Z,987.41
2019-03-03T09:52:59.186Z,987.38
2019-03-03T09:53:59.183Z,987.39
2019-03-03T09:54:59.161Z,987.35
2019-03-03T09:55:59.166Z,987.36
2019-03-03T09:56:59.887Z,987.42
2019-03-03T09:57:59.871Z,987.37
2019-03-03T09:58:59.115Z,987.37
2019-03-03T09:59:59.102Z,987.29
2019-03-03T10:00:59.095Z,987.35
2019-03-03T10:01:59.099Z,987.29
2019-03-03T10:02:59.067Z,987.34
2019-03-03T10:03:59.873Z,987.39
2019-03-03T10:04:59.043Z,987.32
2019-03-03T10:05:59.905Z,987.31
2019-03-03T10:06:59.032Z,987.32
2019-03-03T10:07:59.028Z,987.31
2019-03-03T10:08:59.903Z,987.30
2019-03-03T10:09:59.873Z,987.23
2019-03-03T10:10:58.974Z,987.29
2019-03-03T10:11:58.964Z,987.27
2019-03-03T10:12:59.892Z,987.26
2019-03-03T10:13:58.977Z,987.27
2019-03-03T10:14:58.930Z,987.19
2019-03-03T10:15:58.921Z,987.26
2019-03-03T10:17:00.895Z,987.22
2019-03-03T10:17:58.902Z,987.16
2019-03-03T10:19:07.002Z,987.20
2019-03-03T10:19:58.896Z,987.15
2019-03-03T10:20:59.376Z,987.22
2019-03-03T10:21:58.850Z,987.27
2019-03-03T10:22:58.840Z,987.23
2019-03-03T10:24:00.389Z,987.25
2019-03-03T10:24:58.817Z,987.22
2019-03-03T10:25:58.821Z,987.21
2019-03-03T10:26:58.792Z,987.21
2019-03-03T10:27:58.804Z,987.23
2019-03-03T10:28:58.768Z,987.25
2019-03-03T10:29:58.771Z,987.20
2019-03-03T10:31:00.382Z,987.12
2019-03-03T10:31:58.754Z,987.16
2019-03-03T10:32:58.748Z,987.18
2019-03-03T10:33:58.711Z,987.17
2019-03-03T10:34:58.737Z,987.16
2019-03-03T10:35:58.686Z,987.07
2019-03-03T10:37:01.375Z,987.12
2019-03-03T10:37:58.685Z,987.14
2019-03-03T10:38:58.652Z,987.08
2019-03-03T10:39:58.643Z,987.14
2019-03-03T10:40:58.636Z,987.14
2019-03-03T10:41:59.379Z,987.08
2019-03-03T10:42:59.402Z,987.03
2019-03-03T10:43:58.612Z,987.08
2019-03-03T10:44:58.583Z,987.03
2019-03-03T10:45:58.569Z,987.07
2019-03-03T10:46:58.560Z,987.04
2019-03-03T10:47:58.546Z,987.05
2019-03-03T10:48:59.378Z,987.01
2019-03-03T10:49:58.541Z,987.09
2019-03-03T10:51:00.383Z,987.05
2019-03-03T10:51:58.501Z,987.10
2019-03-03T10:52:58.511Z,987.10
2019-03-03T10:53:58.479Z,987.07
2019-03-03T10:54:58.476Z,987.06
2019-03-03T10:55:58.475Z,987.14
2019-03-03T10:56:59.376Z,987.11
2019-03-03T10:57:58.430Z,987.18
2019-03-03T10:58:58.421Z,987.16
2019-03-03T10:59:59.375Z,987.13
2019-03-03T11:00:58.395Z,987.07
2019-03-03T11:01:58.413Z,987.12
2019-03-03T11:02:58.884Z,987.06
2019-03-03T11:03:58.362Z,987.14
2019-03-03T11:04:58.358Z,987.04
2019-03-03T11:05:58.342Z,987.07
2019-03-03T11:06:58.881Z,986.99
2019-03-03T11:07:58.334Z,987.03
2019-03-03T11:08:59.900Z,987.05
2019-03-03T11:09:58.292Z,987.10
2019-03-03T11:10:58.882Z,987.05
2019-03-03T11:11:59.903Z,987.04
2019-03-03T11:12:58.280Z,987.03
2019-03-03T11:13:58.304Z,987.08
2019-03-03T11:14:58.263Z,987.05
2019-03-03T11:15:58.224Z,987.00
2019-03-03T11:16:58.879Z,986.98
2019-03-03T11:17:58.881Z,986.99
2019-03-03T11:18:58.879Z,986.95
2019-03-03T11:19:58.198Z,986.99
2019-03-03T11:20:58.162Z,987.07
2019-03-03T11:21:58.159Z,987.05
2019-03-03T11:22:58.140Z,987.03
2019-03-03T11:23:58.124Z,987.04
2019-03-03T11:24:58.137Z,987.04
2019-03-03T11:25:58.124Z,987.06
2019-03-03T11:26:58.092Z,987.13
2019-03-03T11:27:58.078Z,987.11
2019-03-03T11:28:58.066Z,987.15
2019-03-03T11:30:02.908Z,987.14
2019-03-03T11:30:58.885Z,987.06
2019-03-03T11:31:58.045Z,987.05
2019-03-03T11:32:58.018Z,987.04
2019-03-03T11:33:58.007Z,987.07
2019-03-03T11:34:58.017Z,987.07
2019-03-03T11:35:57.981Z,987.04
2019-03-03T11:36:57.972Z,987.05
2019-03-03T11:37:57.988Z,986.99
2019-03-03T11:38:57.952Z,986.98
2019-03-03T11:39:57.940Z,986.96
2019-03-03T11:40:57.930Z,986.95
2019-03-03T11:41:58.881Z,986.93
2019-03-03T11:42:57.905Z,986.89
2019-03-03T11:43:57.908Z,986.87
2019-03-03T11:44:57.882Z,986.82
2019-03-03T11:45:58.389Z,986.84
2019-03-03T11:46:57.872Z,986.84
2019-03-03T11:48:04.144Z,986.84
2019-03-03T11:48:58.860Z,986.78
2019-03-03T11:49:57.820Z,986.79
2019-03-03T11:50:57.810Z,986.87
2019-03-03T11:51:58.384Z,986.80
2019-03-03T11:52:57.783Z,986.73
2019-03-03T11:53:57.775Z,986.68
2019-03-03T11:54:57.775Z,986.70
2019-03-03T11:55:57.748Z,986.65
2019-03-03T11:56:58.384Z,986.60
2019-03-03T11:57:58.389Z,986.60
2019-03-03T11:58:57.714Z,986.64
2019-03-03T11:59:59.400Z,986.56
2019-03-03T12:00:57.705Z,986.49
2019-03-03T12:01:57.673Z,986.41
2019-03-03T12:02:57.663Z,986.42
2019-03-03T12:03:58.386Z,986.44
2019-03-03T12:04:57.653Z,986.46
2019-03-03T12:05:57.632Z,986.44
2019-03-03T12:06:57.629Z,986.45
2019-03-03T12:07:57.601Z,986.41
2019-03-03T12:08:57.590Z,986.43
2019-03-03T12:09:58.385Z,986.41
2019-03-03T12:10:58.388Z,986.44
2019-03-03T12:11:57.552Z,986.45
2019-03-03T12:12:57.556Z,986.40
2019-03-03T12:13:57.528Z,986.42
2019-03-03T12:14:57.519Z,986.44
2019-03-03T12:15:57.512Z,986.43
2019-03-03T12:16:57.502Z,986.37
2019-03-03T12:17:58.392Z,986.31
2019-03-03T12:18:57.491Z,986.36
2019-03-03T12:19:57.457Z,986.36
2019-03-03T12:21:00.392Z,986.36
2019-03-03T12:21:57.447Z,986.41
2019-03-03T12:22:59.392Z,986.41
2019-03-03T12:23:58.395Z,986.46
2019-03-03T12:24:57.410Z,986.46
2019-03-03T12:25:57.401Z,986.46
2019-03-03T12:26:57.374Z,986.47
2019-03-03T12:27:57.886Z,986.48